Tiempo atmosférico en la estación meteorológica de San Pablo De Los Montes, Toledo (917 m.)



Fecha
DESCASC
Temp. máxima en grados centígrados (hora)
DESCASC
Temp. mínima en grados centígrados (hora)
DESCASC
Temp. media en grados centígrados
DESCASC
Racha de viento máxima en m/sg (hora)
DESCASC
Velocidad máxima media en intervalos de 10 minutos(hora)
DESCASC
Precipitaciones diarias en mm
DESCASC
Precipitaciones de 00:00 a 06:00 en mm
DESCASC
Precipitaciones de 06:00 a 12:00 en mm
DESCASC
Precipitaciones de 12:00 a 18:00 en mm
DESCASC
Precipitaciones de 18:00 a 24:00 en mm
DESCASC
15-11-2018 14.7 (14:20) 9 (05:50) 11.8 6.94 (15:00) 3.33 (12:00) 0 0 0 0 0
14-11-2018 16.9 (14:20) 7.6 (08:00) 12.2 6.94 (22:30) 3.06 (05:20) 0 0 0 0 0
13-11-2018 14.4 (14:50) 7.3 (07:40) 10.8 6.11 (21:10) 2.5 (11:10) 0 0 0 0 0
12-11-2018 11.8 (16:10) 8.1 (07:00) 10 11.39 (01:40) 6.39 (12:30) 3 0 2.6 0.4 0
11-11-2018 12.8 (13:40) 10.3 (00:00) 11.6 18.61 (02:40) 4.72 (02:40) 3 2.8 0.1 0 0.1
10-11-2018 10.5 (21:10) 7.7 (00:00) 9.1 16.67 (03:20) 10.83 (02:30) 16.7 0.1 2.1 3 11.5
09-11-2018 11.1 (14:40) 2.3 (00:00) 6.7 13.61 (22:50) 6.67 (21:30) 0 0 0 0 0
08-11-2018 10.7 (13:20) 5.5 (00:00) 8.1 15 (22:00) 8.61 (22:00) 1.7 0 0 1.3 0.4
07-11-2018 11.4 (13:20) 6 (00:00) 8.7 19.44 (05:40) 10 (07:00) 6.2 0.9 5.3 0 0
06-11-2018 7.6 (16:30) 4.1 (00:00) 5.8 14.72 (06:00) 8.06 (06:10) 0.1 0 0.1 0 0
05-11-2018 9.3 (00:00) 5.3 (00:00) 7.3 15.28 (21:50) 7.5 (23:00) 25 20.8 1.5 2.5 0.2
04-11-2018 15.3 (11:20) 8.5 (00:00) 11.9 13.33 (18:20) 8.89 (14:20) 0 0 0 0 0
03-11-2018 16.8 (16:00) 6.2 (00:00) 11.5 5.28 (12:00) 2.5 (14:10) 0 0 0 0 0
02-11-2018 16.8 (15:20) 6.4 (00:00) 11.6 9.17 (13:30) 5 (11:30) 0.1 0 0 0 0.1
01-11-2018 13.3 (14:50) 3.2 (00:00) 8.3 8.33 (16:30) 4.17 (15:50) 0.1 0.1 0 0 0
31-10-2018 7.6 (15:00) 3.9 (00:00) 5.8 11.67 (12:30) 7.78 (11:20) 1.3 1.1 0.2 0 0
30-10-2018 7.6 (16:20) 4.2 (00:00) 5.9 15 (04:40) 7.5 (03:30) 30.2 2.6 20 6.4 1.2
29-10-2018 9.7 (16:10) 0 (00:00) 4.8 11.39 (23:50) 5.56 (23:50) 0 0 0 0 0
28-10-2018 7.2 (16:10) 0.4 (00:00) 3.8 11.94 (16:50) 6.11 (17:00) 2.1 2 0 0 0.1
27-10-2018 -- (--) -- (--) -- -- (--) -- (--) -- 1.2 0.2 -- 0.2
26-10-2018 16.1 (11:10) 10.3 (00:00) 13.2 9.72 (12:30) 7.22 (12:20) 2.8 0 0.3 1 1.5
25-10-2018 22.5 (16:30) 12.9 (00:00) 17.7 5.83 (13:40) 2.78 (14:50) 0 0 0 0 0
24-10-2018 22.5 (16:00) 11.9 (00:00) 17.2 4.17 (14:00) 1.94 (14:00) 0 0 0 0 0
23-10-2018 20.9 (17:10) 9.1 (00:00) 15 4.72 (17:30) 2.5 (17:40) 0 0 0 0 0
22-10-2018 21.1 (16:20) 11.7 (00:00) 16.4 8.33 (03:20) 5.28 (03:20) 5.1 5 0 0.1 0
21-10-2018 18.1 (15:00) 11.6 (00:00) 14.9 12.5 (02:10) 4.17 (01:50) 6.9 0 0 6.1 0.8
20-10-2018 16.8 (14:50) 10.4 (00:00) 13.6 11.39 (23:20) 5 (20:10) 1.2 0 0.1 0 1.1
19-10-2018 13.3 (14:00) 10.5 (00:00) 11.9 6.11 (02:40) 2.78 (15:40) 3.3 0.1 0 2.9 0.3
18-10-2018 18.3 (16:30) 11.1 (00:00) 14.7 9.17 (16:50) 3.89 (16:40) 4.2 1.7 0.8 1.5 0.2

Gráficas

Temp. máximas Temp. mínimas Temp. medias Precipitaciones Rachas de viento máximas Velocidades máximas media en intervalos de 10 minutos

Datos horarios

Fecha y hora oficial Temperatura (ºC) Velocidad del viento (km/h) Dirección del viento Racha (km/h) Dirección de racha Precipitación (mm) Presión (hPa) Tendencia (hPa) Humedad (%)
2018-11-16 23:00:00 10.9 2 Sur 12 Sudoeste 0 -- -- 70
2018-11-16 22:00:00 10.4 0 Calma 8 Sudeste 0 -- -- 75
2018-11-16 21:00:00 10.5 0 Calma 10 Norte 0 -- -- 77
2018-11-16 20:00:00 10.4 0 Calma 9 Este 0 -- -- 76
2018-11-16 19:00:00 11.8 3 Este 12 Este 0 -- -- 69
2018-11-16 18:00:00 11.9 4 Sur 15 Sur 0 -- -- 55
2018-11-16 17:00:00 13.5 4 Sur 14 Sur 0 -- -- 50
2018-11-16 16:00:00 13.7 3 Sur 19 Este 0 -- -- 50
2018-11-16 15:00:00 14.6 7 Este 19 Este 0 -- -- 46
2018-11-16 14:00:00 15.8 4 Sudeste 23 Este 0 -- -- 44
2018-11-16 13:00:00 14.7 5 Sur 16 Sur 0 -- -- 50
2018-11-16 12:00:00 14.1 4 Sudeste 16 Sudeste 0 -- -- 54
2018-11-16 11:00:00 13.8 3 Este 8 Sudeste 0 -- -- 61
2018-11-16 10:00:00 11.4 5 Este 13 Este 0 -- -- 75
2018-11-16 09:00:00 9.6 0 Calma 6 Norte 0 -- -- 85
2018-11-16 08:00:00 8.7 0 Calma 6 Sudoeste 0 -- -- 86
2018-11-16 07:00:00 9.1 4 Sudoeste 7 Sudoeste 0 -- -- 86
2018-11-16 06:00:00 9 0 Calma -- -- 0 -- -- 85
2018-11-16 05:00:00 8.9 0 Calma -- -- 0 -- -- 85
2018-11-16 04:00:00 9.6 0 Calma 5 Este 0 -- -- 85
2018-11-16 03:00:00 9.6 0 Calma -- -- 0 -- -- 84
2018-11-16 02:00:00 9.8 0 Calma -- -- 0 -- -- 84
2018-11-16 01:00:00 10.1 0 Calma 9 Sudeste 0 -- -- 82
2018-11-16 00:00:00 10.5 4 Este 14 Este 0 -- -- 81
2018-11-15 23:00:00 10.7 4 Este 16 Este 0 -- -- 79
2018-11-15 22:00:00 11.2 7 Este 17 Sudeste 0 -- -- 75
2018-11-15 21:00:00 10.7 0 Calma 9 Norte 0 -- -- 79
2018-11-15 20:00:00 10.6 2 Este 16 Este 0 -- -- 75
2018-11-15 19:00:00 10.4 3 Sudeste 8 Sudeste 0 -- -- 72
2018-11-15 18:00:00 11.7 5 Este 17 Sudeste 0 -- -- 67
2018-11-15 17:00:00 13.3 7 Este 19 Este 0 -- -- 60
2018-11-15 16:00:00 13.7 7 Este 23 Este 0 -- -- 59
2018-11-15 15:00:00 13.6 10 Este 25 Este 0 -- -- 61
2018-11-15 14:00:00 14 5 Nordeste 15 Nordeste 0 -- -- 59
2018-11-15 13:00:00 13 7 Este 24 Este 0 -- -- 62
2018-11-15 12:00:00 13.6 12 Nordeste 24 Este 0 -- -- 64
2018-11-15 11:00:00 12.4 6 Nordeste 17 Este 0 -- -- 66
2018-11-15 10:00:00 13.1 3 Nordeste 18 Norte 0 -- -- 67
2018-11-15 09:00:00 10.7 3 Sudoeste 14 Este 0 -- -- 75
2018-11-15 08:00:00 9.4 0 Calma 9 Noroeste 0 -- -- 77
2018-11-15 07:00:00 9.6 2 Sudoeste 13 Norte 0 -- -- 75
2018-11-15 06:00:00 10.2 3 Norte 15 Sudeste 0 -- -- 73
2018-11-15 05:00:00 10.8 2 Sur 17 Sudeste 0 -- -- 67
2018-11-15 04:00:00 10.7 3 Sudoeste 18 Sur 0 -- -- 68
2018-11-15 03:00:00 10.9 0 Calma 23 Sur 0 -- -- 69
2018-11-15 02:00:00 10.6 3 Sudeste 24 Sudeste 0 -- -- 72
2018-11-15 01:00:00 10.9 4 Nordeste 15 Sur 0 -- -- 71
2018-11-15 00:00:00 11 3 Este 21 Este 0 -- -- 71
2018-11-14 23:00:00 11.4 5 Nordeste 25 Sudeste 0 -- -- 69
2018-11-14 22:00:00 11.2 8 Este 24 Sudeste 0 -- -- 76
2018-11-14 21:00:00 11.1 0 Calma 18 Este 0 -- -- 78
2018-11-14 20:00:00 12 6 Este 19 Sudeste 0 -- -- 74
2018-11-14 19:00:00 11.5 5 Sudeste 17 Este 0 -- -- 77
2018-11-14 18:00:00 11.9 3 Sudeste 14 Este 0 -- -- 73
2018-11-14 17:00:00 13 3 Este 21 Este 0 -- -- 72
2018-11-14 16:00:00 14 6 Este 22 Este 0 -- -- 62
2018-11-14 15:00:00 15.1 5 Nordeste 20 Nordeste 0 -- -- 57
2018-11-14 14:00:00 15.8 8 Nordeste 19 Nordeste 0 -- -- 56
2018-11-14 13:00:00 14.9 10 Nordeste 19 Este 0 -- -- 62
2018-11-14 12:00:00 13.7 9 Este 20 Este 0 -- -- 66
2018-11-14 11:00:00 11.1 5 Nordeste 19 Este 0 -- -- 80
2018-11-14 10:00:00 11.1 2 Nordeste 10 Este 0 -- -- 83
2018-11-14 09:00:00 8.7 3 Sur 7 Sur 0 -- -- 88
2018-11-14 08:00:00 7.8 2 Este 9 Este 0 -- -- 88
2018-11-14 07:00:00 8.5 4 Este 15 Este 0 -- -- 88
2018-11-14 06:00:00 8.5 10 Este 20 Este 0 -- -- 88
2018-11-14 05:00:00 8.4 6 Sudeste 15 Sudeste 0 -- -- 88
2018-11-14 04:00:00 8.1 2 Sur 8 Este 0 -- -- 87
2018-11-14 03:00:00 8.4 0 Calma 6 Sudoeste 0 -- -- 86
2018-11-14 02:00:00 9 2 Este 6 Este 0 -- -- 84
2018-11-14 01:00:00 10.3 3 Este 17 Sudeste 0 -- -- 80
2018-11-14 00:00:00 9.2 4 Sudoeste 14 Este 0 -- -- 84
2018-11-13 23:00:00 9.6 5 Oeste 12 Sudoeste 0 -- -- 81
2018-11-13 22:00:00 10.8 5 Este 22 Sur 0 -- -- 75
2018-11-13 21:00:00 10.9 5 Sudeste 17 Este 0 -- -- 78
2018-11-13 20:00:00 10.6 0 Calma 17 Este 0 -- -- 77
2018-11-13 19:00:00 11.3 7 Este 17 Este 0 -- -- 74
2018-11-13 18:00:00 11.7 2 Nordeste 8 Este 0 -- -- 71
2018-11-13 17:00:00 13 0 Calma 10 Nordeste 0 -- -- 67
2018-11-13 16:00:00 13.3 4 Norte 12 Noroeste 0 -- -- 63
2018-11-13 15:00:00 13.5 4 Norte 11 Norte 0 -- -- 64
2018-11-13 14:00:00 13.1 4 Norte 12 Noroeste 0 -- -- 66
2018-11-13 13:00:00 11.9 0 Calma 9 Este 0 -- -- 71
2018-11-13 12:00:00 11 5 Noroeste 17 Este 0 -- -- 76
2018-11-13 11:00:00 11.5 7 Este 13 Sudeste 0 -- -- 75
2018-11-13 10:00:00 9.6 2 Este 6 Este 0 -- -- 86
2018-11-13 09:00:00 7.9 0 Calma 7 Noroeste 0 -- -- 86
2018-11-13 08:00:00 7.7 0 Calma 6 Sudoeste 0 -- -- 86
2018-11-13 07:00:00 7.8 0 Calma 7 Sudoeste 0 -- -- 86
2018-11-13 06:00:00 7.7 4 Sudoeste 6 Sudoeste 0 -- -- 85
2018-11-13 05:00:00 8.3 0 Calma -- -- 0 -- -- 85
2018-11-13 04:00:00 8.3 0 Calma -- -- 0 -- -- 85
2018-11-13 03:00:00 8.6 0 Calma -- -- 0 -- -- 85
2018-11-13 02:00:00 9.1 0 Calma 4 Sur 0 -- -- 85
2018-11-13 01:00:00 9.3 0 Calma 4 Sudoeste 0 -- -- 86
2018-11-13 00:00:00 9.5 0 Calma 4 Nordeste 0 -- -- 87
2018-11-12 23:00:00 9.4 0 Calma 6 Este 0 -- -- 87
2018-11-12 22:00:00 9.3 4 Este 6 Este 0 -- -- 86
2018-11-12 21:00:00 9.5 0 Calma -- -- 0 -- -- 85
2018-11-12 20:00:00 9.8 0 Calma 5 Norte 0 -- -- 84
2018-11-12 19:00:00 9.9 0 Calma 5 Nordeste 0 -- -- 82
2018-11-12 18:00:00 10.2 2 Norte 13 Norte 0 -- -- 79
2018-11-12 17:00:00 11.6 2 Nordeste 14 Sur 0 -- -- 67
2018-11-12 16:00:00 11.4 3 Sudeste 16 Sudoeste 0 -- -- 65
2018-11-12 15:00:00 11.3 3 Este 21 Sur 0 -- -- 68
2018-11-12 14:00:00 11.4 0 Calma 20 Sudoeste 0 -- -- 62
2018-11-12 13:00:00 10 14 Sudoeste 32 Sudoeste 0.4 -- -- 72
2018-11-12 12:00:00 9.4 19 Sudoeste 30 Sudoeste 0.4 -- -- 78
2018-11-12 11:00:00 9.2 6 Sur 19 Sur 0.5 -- -- 82
2018-11-12 10:00:00 8.5 10 Sur 25 Sudeste 1.7 -- -- 82
2018-11-12 09:00:00 8.6 10 Sur 22 Sur 0 -- -- 75
2018-11-12 08:00:00 8.6 15 Sur 23 Sur 0 -- -- 74
2018-11-12 07:00:00 8.1 13 Sur 30 Sudeste 0 -- -- 78
2018-11-12 06:00:00 8.7 12 Sur 27 Sur 0 -- -- 83
2018-11-12 05:00:00 8.7 13 Sur 31 Sudeste 0 -- -- 82
2018-11-12 04:00:00 8.8 13 Sur 25 Sudeste 0 -- -- 80
2018-11-12 03:00:00 8.8 13 Sudoeste 27 Sudoeste 0 -- -- 76
2018-11-12 02:00:00 9.3 12 Sudoeste 41 Sur 0 -- -- 77
2018-11-12 01:00:00 10.3 12 Sudoeste 33 Sudoeste 0 -- -- 76
2018-11-12 00:00:00 10.5 11 Sur 36 Sudoeste 0 -- -- 77
2018-11-11 23:00:00 10.8 10 Sudoeste 31 Sudoeste 0 -- -- 75
2018-11-11 22:00:00 10.8 13 Sur 41 Sudoeste 0 -- -- 75
2018-11-11 21:00:00 10.9 11 Sur 29 Sur 0.1 -- -- 73
2018-11-11 20:00:00 11.1 12 Sur 30 Sudoeste 0 -- -- 72
2018-11-11 19:00:00 11.2 10 Sur 24 Sur 0 -- -- 72
2018-11-11 18:00:00 12 8 Sur 23 Sudoeste 0 -- -- 68
2018-11-11 17:00:00 12.2 7 Sur 24 Sur 0 -- -- 66
2018-11-11 16:00:00 12.3 8 Sur 27 Sudeste 0 -- -- 69
2018-11-11 15:00:00 12.4 6 Sudeste 24 Sur 0 -- -- 71
2018-11-11 14:00:00 12.2 11 Sur 30 Sur 0 -- -- 71
2018-11-11 13:00:00 11.9 9 Sur 24 Sur 0 -- -- 74
2018-11-11 12:00:00 11.6 5 Sur 25 Sur 0 -- -- 75
2018-11-11 11:00:00 11.4 8 Sudoeste 26 Sur 0 -- -- 70
2018-11-11 10:00:00 10.8 10 Oeste 33 Oeste 0 -- -- 80
2018-11-11 09:00:00 10.5 12 Oeste 32 Oeste 0.1 -- -- 81
2018-11-11 08:00:00 10.5 9 Sudoeste 38 Sudoeste 0 -- -- 82
2018-11-11 07:00:00 10.7 0 Calma 30 Oeste 0 -- -- 85
2018-11-11 06:00:00 10.9 13 Sudoeste 31 Sudoeste 0 -- -- 81
2018-11-11 05:00:00 10.8 3 Oeste 33 Noroeste 0 -- -- 85
2018-11-11 04:00:00 10.8 4 Oeste 41 Oeste 0 -- -- 84
2018-11-11 03:00:00 10.8 7 Oeste 67 Oeste 0.2 -- -- 84
2018-11-11 02:00:00 10.9 15 Sur 30 Sur 1.1 -- -- 86
2018-11-11 01:00:00 10.6 11 Sur 33 Sur 1.5 -- -- 87
2018-11-11 00:00:00 10.5 12 Sur 39 Sur 2.5 -- -- 88
2018-11-10 23:00:00 10.3 8 Sudeste 19 Sudeste 3.1 -- -- 88
2018-11-10 22:00:00 10 7 Sur 22 Oeste 1.6 -- -- 87
2018-11-10 21:00:00 10.4 6 Sur 27 Sur 1.5 -- -- 87
2018-11-10 20:00:00 10.4 10 Sur 31 Sudoeste 1.7 -- -- 87
2018-11-10 19:00:00 10.3 12 Sur 44 Sur 1.1 -- -- 87
2018-11-10 18:00:00 10.1 19 Sur 38 Sudoeste 0.9 -- -- 85
2018-11-10 17:00:00 10.3 21 Sur 45 Sur 0.8 -- -- 84
2018-11-10 16:00:00 10.2 27 Sur 48 Sudoeste 0.5 -- -- 84
2018-11-10 15:00:00 10.1 33 Sur 58 Sudoeste 0.2 -- -- 85
2018-11-10 14:00:00 9.9 30 Sur 56 Sudoeste 0.2 -- -- 85
2018-11-10 13:00:00 9.8 27 Sur 55 Sur 0.4 -- -- 85
2018-11-10 12:00:00 9.6 24 Sur 51 Sur 0.4 -- -- 86
2018-11-10 11:00:00 9.1 24 Sur 53 Sudoeste 0.5 -- -- 87
2018-11-10 10:00:00 8.8 31 Sur 50 Sur 0.4 -- -- 86
2018-11-10 09:00:00 8.4 17 Sudoeste 38 Sur 0.6 -- -- 87
2018-11-10 08:00:00 8.1 25 Sur 46 Sur 0.2 -- -- 87
2018-11-10 07:00:00 8.2 19 Sur 45 Sudoeste 0 -- -- 87
2018-11-10 06:00:00 8.1 22 Sur 42 Sur 0.1 -- -- 87
2018-11-10 05:00:00 7.9 30 Sudoeste 57 Sudoeste 0 -- -- 86
2018-11-10 04:00:00 8 32 Sudoeste 60 Sudoeste 0 -- -- 86
2018-11-10 03:00:00 7.8 37 Sudoeste 58 Sur 0 -- -- 88
2018-11-10 02:00:00 7.8 26 Sur 58 Sur 0 -- -- 87
2018-11-10 01:00:00 7.8 15 Sudoeste 42 Sudoeste 0 -- -- 83
2018-11-10 00:00:00 7.8 19 Sur 41 Sur 0 -- -- 82
2018-11-09 23:00:00 7.8 14 Sur 49 Sur 0 -- -- 80
2018-11-09 22:00:00 7.8 21 Sudoeste 44 Sudoeste 0 -- -- 77
2018-11-09 21:00:00 7.8 22 Sudoeste 37 Sudoeste 0 -- -- 73
2018-11-09 20:00:00 7.8 8 Sur 32 Sudoeste 0 -- -- 71
2018-11-09 19:00:00 7.9 13 Sudoeste 30 Sudoeste 0 -- -- 70
2018-11-09 18:00:00 8.2 6 Sudoeste 24 Sudoeste 0 -- -- 62
2018-11-09 17:00:00 8.1 10 Sudoeste 26 Sudoeste 0 -- -- 57
2018-11-09 16:00:00 9.3 12 Sudoeste 32 Sudoeste 0 -- -- 51
2018-11-09 15:00:00 10.5 13 Oeste 22 Sudoeste 0 -- -- 46
2018-11-09 14:00:00 9.4 13 Sudoeste 25 Sudoeste 0 -- -- 53
2018-11-09 13:00:00 10 10 Oeste 21 Sur 0 -- -- 49
2018-11-09 12:00:00 10 3 Norte 18 Noroeste 0 -- -- 46
2018-11-09 11:00:00 8.7 4 Este 15 Oeste 0 -- -- 49
2018-11-09 10:00:00 6.7 12 Oeste 25 Oeste 0 -- -- 59
2018-11-09 09:00:00 3.7 2 Oeste 13 Sudeste 0 -- -- 76
2018-11-09 08:00:00 2.3 8 Este 21 Oeste 0 -- -- 79
2018-11-09 07:00:00 3.2 2 Sudoeste 9 Sudoeste 0 -- -- 75
2018-11-09 06:00:00 2.9 2 Sudeste 13 Sur 0 -- -- 76
2018-11-09 05:00:00 3.3 7 Sudoeste 30 Oeste 0 -- -- 72
2018-11-09 04:00:00 4.6 18 Oeste 35 Oeste 0 -- -- 67
2018-11-09 03:00:00 4.6 16 Oeste 36 Oeste 0 -- -- 68
2018-11-09 02:00:00 5.1 12 Oeste 41 Sudoeste 0 -- -- 65
2018-11-09 01:00:00 5.3 15 Oeste 40 Oeste 0 -- -- 64
2018-11-09 00:00:00 5.9 16 Oeste 46 Sudoeste 0 -- -- 60
2018-11-08 23:00:00 6.8 25 Sudoeste 54 Sudoeste 0 -- -- 55
2018-11-08 22:00:00 6.5 31 Sudoeste 54 Sudoeste 0.2 -- -- 60
2018-11-08 21:00:00 7.7 10 Sudoeste 30 Oeste 0 -- -- 77
2018-11-08 20:00:00 8.1 17 Sudoeste 42 Sudoeste 0.2 -- -- 75
2018-11-08 19:00:00 8.5 22 Sudoeste 48 Sudoeste 0 -- -- 79
2018-11-08 18:00:00 8.1 18 Sudoeste 37 Sudoeste 0.1 -- -- 78
2018-11-08 17:00:00 9.2 4 Sudoeste 9 Noroeste 0.4 -- -- 87
2018-11-08 16:00:00 9.3 7 Noroeste 20 Sudeste 0.8 -- -- 84
2018-11-08 15:00:00 9.6 5 Sur 21 Este 0 -- -- 77
2018-11-08 14:00:00 10 8 Sur 24 Sur 0 -- -- 67
2018-11-08 13:00:00 10.3 12 Sur 23 Sur 0 -- -- 62
2018-11-08 12:00:00 9.8 9 Sur 28 Sudoeste 0 -- -- 69
2018-11-08 11:00:00 8.9 6 Sur 28 Sudeste 0 -- -- 76
2018-11-08 10:00:00 8.1 11 Sur 24 Sur 0 -- -- 79
2018-11-08 09:00:00 7.5 9 Sur 17 Sudeste 0 -- -- 84
2018-11-08 08:00:00 7.5 5 Sudeste 18 Sur 0 -- -- 83
2018-11-08 07:00:00 7.6 4 Sudeste 13 Sudeste 0 -- -- 85
2018-11-08 06:00:00 7.4 2 Sudeste 9 Sudeste 0 -- -- 86
2018-11-08 05:00:00 7.4 3 Sur 15 Sudeste 0 -- -- 85
2018-11-08 04:00:00 7.4 4 Sudeste 32 Sudoeste 0 -- -- 80
2018-11-08 03:00:00 7.8 11 Sur 25 Sur 0 -- -- 77
2018-11-08 02:00:00 7.9 12 Sudoeste 21 Sudoeste 0 -- -- 74
2018-11-08 01:00:00 8.2 17 Sudoeste 25 Sudoeste 0 -- -- 71
2018-11-08 00:00:00 7.6 14 Sur 28 Sudoeste 0 -- -- 81
2018-11-07 23:00:00 7.2 11 Sudoeste 27 Sudoeste 0 -- -- 75
2018-11-07 22:00:00 8.6 15 Sudoeste 25 Sudoeste 0 -- -- 66
2018-11-07 21:00:00 8.7 18 Sudoeste 29 Sudoeste 0 -- -- 71
2018-11-07 20:00:00 8.6 21 Sudoeste 26 Sudoeste 0 -- -- 73
2018-11-07 19:00:00 8.9 20 Sudoeste 27 Sudoeste 0 -- -- 71
2018-11-07 18:00:00 9.2 13 Sudoeste 27 Sudoeste 0 -- -- 71
2018-11-07 17:00:00 9.8 14 Sudoeste 25 Sudoeste 0 -- -- 66
2018-11-07 16:00:00 10.2 12 Sudoeste 23 Sudoeste 0 -- -- 65
2018-11-07 15:00:00 10.7 9 Sudoeste 17 Sudoeste 0 -- -- 59
2018-11-07 14:00:00 10.4 8 Sudoeste 32 Sudoeste 0 -- -- 68
2018-11-07 13:00:00 10.1 18 Sudoeste 35 Sudoeste 0 -- -- 68
2018-11-07 12:00:00 8.9 18 Sudoeste 43 Oeste 0.6 -- -- 80
2018-11-07 11:00:00 8.4 17 Sudoeste 42 Sudoeste 0.9 -- -- 86
2018-11-07 10:00:00 7.8 25 Sur 45 Sur 1.1 -- -- 86
2018-11-07 09:00:00 7.3 21 Sudoeste 48 Sur 0.9 -- -- 86
2018-11-07 08:00:00 7 31 Sudoeste 55 Sur 0.9 -- -- 86
2018-11-07 07:00:00 6.7 36 Sudoeste 58 Sudoeste 0.9 -- -- 85
2018-11-07 06:00:00 6.4 33 Sur 70 Sudoeste 0.5 -- -- 85
2018-11-07 05:00:00 6.3 35 Sudoeste 61 Sudoeste 0.4 -- -- 83
2018-11-07 04:00:00 6.2 21 Sur 51 Sur 0 -- -- 80
2018-11-07 03:00:00 6.4 9 Sur 33 Sur 0 -- -- 80
2018-11-07 02:00:00 6.5 4 Sudeste 42 Sudoeste 0 -- -- 80
2018-11-07 01:00:00 6.5 11 Sur 33 Sur 0 -- -- 77
2018-11-07 00:00:00 6.6 16 Sudoeste 31 Sur 0 -- -- 74
2018-11-06 23:00:00 6.7 9 Sur 38 Sudoeste 0 -- -- 68
2018-11-06 22:00:00 6.9 8 Sur 31 Oeste 0 -- -- 65
2018-11-06 21:00:00 6.7 4 Oeste 19 Oeste 0 -- -- 67
2018-11-06 20:00:00 6.6 3 Sudeste 23 Nordeste 0 -- -- 67
2018-11-06 19:00:00 6.4 8 Sur 27 Sur 0 -- -- 69
2018-11-06 18:00:00 6.8 9 Nordeste 29 Nordeste 0 -- -- 67
2018-11-06 17:00:00 6.8 13 Sur 30 Sudoeste 0 -- -- 68
2018-11-06 16:00:00 6.8 6 Este 33 Oeste 0 -- -- 69
2018-11-06 15:00:00 6.8 11 Sudoeste 26 Sudoeste 0 -- -- 68
2018-11-06 14:00:00 6.8 13 Sudoeste 30 Sudoeste 0 -- -- 67
2018-11-06 13:00:00 6.2 14 Sudoeste 26 Oeste 0 -- -- 71
2018-11-06 12:00:00 5.7 14 Sudoeste 28 Sudoeste 0 -- -- 72
2018-11-06 11:00:00 6 16 Sudoeste 29 Sudoeste 0 -- -- 70
2018-11-06 10:00:00 5.5 13 Sudoeste 25 Sudoeste 0 -- -- 81
2018-11-06 09:00:00 4.7 14 Sudoeste 39 Sudoeste 0 -- -- 82
2018-11-06 08:00:00 4.7 23 Sudoeste 46 Sudoeste 0.1 -- -- 76
2018-11-06 07:00:00 4.5 23 Sudoeste 46 Oeste 0 -- -- 77
2018-11-06 06:00:00 4.4 27 Sudoeste 53 Sudoeste 0 -- -- 74
2018-11-06 05:00:00 4.6 19 Sudoeste 46 Sudoeste 0 -- -- 67
2018-11-06 04:00:00 5.2 19 Sudoeste 42 Sur 0 -- -- 64
2018-11-06 03:00:00 5 17 Sudoeste 37 Sudoeste 0 -- -- 70
2018-11-06 02:00:00 4.9 18 Sudoeste 48 Sudoeste 0 -- -- 72
2018-11-06 01:00:00 5.2 21 Sudoeste 42 Sudoeste 0 -- -- 68
2018-11-06 00:00:00 5.5 19 Oeste 50 Noroeste 0 -- -- 67
2018-11-05 23:00:00 5.7 27 Sudoeste 47 Sudoeste 0 -- -- 69
2018-11-05 22:00:00 5.9 21 Sudoeste 55 Sudoeste 0 -- -- 67
2018-11-05 21:00:00 6.2 19 Sudoeste 51 Sudoeste 0 -- -- 65
2018-11-05 20:00:00 6.4 17 Sudoeste 47 Sudoeste 0 -- -- 65
2018-11-05 19:00:00 6.4 23 Oeste 51 Oeste 0.2 -- -- 66
2018-11-05 18:00:00 6 20 Sudoeste 48 Sudoeste 0 -- -- 74
2018-11-05 17:00:00 5.9 20 Sudoeste 42 Oeste 0.4 -- -- 79
2018-11-05 16:00:00 6.1 10 Oeste 44 Sudoeste 0.1 -- -- 81
2018-11-05 15:00:00 6.2 21 Sudoeste 51 Sudoeste 0.8 -- -- 81
2018-11-05 14:00:00 5.8 14 Sudoeste 35 Sudoeste 0.9 -- -- 81
2018-11-05 13:00:00 5.7 14 Sudoeste 44 Sur 0.3 -- -- 78
2018-11-05 12:00:00 6.1 11 Oeste 49 Sudoeste 0 -- -- 68
2018-11-05 11:00:00 6.6 20 Sudoeste 47 Sudoeste 0.1 -- -- 66
2018-11-05 10:00:00 6.1 14 Sudoeste 43 Sudoeste 0 -- -- 69
2018-11-05 09:00:00 5.7 18 Sudoeste 43 Sudoeste 0 -- -- 76
2018-11-05 08:00:00 6.3 21 Sudoeste 44 Sudoeste 0 -- -- 83
2018-11-05 07:00:00 6.2 15 Sur 53 Sudoeste 1.4 -- -- 78
2018-11-05 06:00:00 7.3 12 Oeste 43 Sur 2.3 -- -- 81
2018-11-05 05:00:00 8.1 21 Sur 38 Sur 6.1 -- -- 86
2018-11-05 04:00:00 7.8 10 Sur 26 Sur 3.9 -- -- 87
2018-11-05 03:00:00 8.1 10 Sur 32 Sur 2.7 -- -- 87
2018-11-05 02:00:00 8.5 17 Sur 35 Sudoeste 5.8 -- -- 87
2018-11-05 01:00:00 9 18 Sur 44 Sur 0 -- -- 82
2018-11-05 00:00:00 9.3 17 Sur 38 Sur 0 -- -- 81
2018-11-04 23:00:00 9.2 14 Sur 33 Sudoeste 0 -- -- 82
2018-11-04 22:00:00 9 14 Sur 42 Sudoeste 0 -- -- 82
2018-11-04 21:00:00 9.2 16 Sudoeste 34 Sudoeste 0 -- -- 82
2018-11-04 20:00:00 9.5 18 Sudoeste 37 Sudoeste 0 -- -- 80
2018-11-04 19:00:00 9.8 23 Sudoeste 48 Sur 0 -- -- 74
2018-11-04 18:00:00 10.1 6 Sur 37 Noroeste 0 -- -- 70
2018-11-04 17:00:00 10.8 12 Oeste 24 Oeste 0 -- -- 69
2018-11-04 16:00:00 11 7 Nordeste 31 Oeste 0 -- -- 68
2018-11-04 15:00:00 10.4 18 Sudoeste 45 Sudoeste 0 -- -- 70
2018-11-04 14:00:00 11.5 31 Sudoeste 43 Sudoeste 0 -- -- 65
2018-11-04 13:00:00 13.2 26 Sudoeste 38 Sudoeste 0 -- -- 54
2018-11-04 12:00:00 14.5 11 Sudoeste 21 Sudoeste 0 -- -- 54
2018-11-04 11:00:00 13.8 0 Calma 7 Este 0 -- -- 60
2018-11-04 10:00:00 11.1 3 Este 6 Este 0 -- -- 68
2018-11-04 09:00:00 9.1 0 Calma -- -- 0 -- -- 73
2018-11-04 08:00:00 8.7 2 Sudoeste 8 Sur 0 -- -- 67
2018-11-04 07:00:00 9.1 0 Calma 5 Sudoeste 0 -- -- 67
2018-11-04 06:00:00 9 0 Calma -- -- 0 -- -- 69
2018-11-04 05:00:00 9.5 0 Calma 21 Sudoeste 0 -- -- 66
2018-11-04 04:00:00 10.6 10 Sudoeste 19 Sudoeste 0 -- -- 68
2018-11-04 03:00:00 9.5 0 Calma -- -- 0 -- -- 61
2018-11-04 02:00:00 9.4 0 Calma 6 Sudoeste 0 -- -- 64
2018-11-04 01:00:00 9.7 0 Calma 7 Sudeste 0 -- -- 61
2018-11-04 00:00:00 9.5 5 Sur 8 Sur 0 -- -- 62
2018-11-03 23:00:00 10.2 0 Calma -- -- 0 -- -- 54
2018-11-03 22:00:00 10.1 3 Sudoeste 9 Sudoeste 0 -- -- 41
2018-11-03 21:00:00 10.1 4 Sudoeste 9 Sudoeste 0 -- -- 31
2018-11-03 20:00:00 10.7 0 Calma -- -- 0 -- -- 31
2018-11-03 19:00:00 10.7 0 Calma -- -- 0 -- -- 32
2018-11-03 18:00:00 11.2 0 Calma 7 Sudoeste 0 -- -- 31
2018-11-03 17:00:00 13.9 0 Calma 15 Noroeste 0 -- -- 26
2018-11-03 16:00:00 16.7 6 Noroeste 12 Noroeste 0 -- -- 23
2018-11-03 15:00:00 16 4 Noroeste 17 Norte 0 -- -- 22
2018-11-03 14:00:00 15.7 5 Norte 15 Noroeste 0 -- -- 24
2018-11-03 13:00:00 13.7 8 Noroeste 17 Norte 0 -- -- 26
2018-11-03 12:00:00 12.9 9 Noroeste 19 Noroeste 0 -- -- 29
2018-11-03 11:00:00 11.6 6 Noroeste 12 Noroeste 0 -- -- 30
2018-11-03 10:00:00 11.3 0 Calma 7 Noroeste 0 -- -- 37
2018-11-03 09:00:00 8.2 0 Calma -- -- 0 -- -- 53
2018-11-03 08:00:00 6.9 0 Calma -- -- 0 -- -- 63
2018-11-03 07:00:00 6.4 0 Calma 10 Oeste 0 -- -- 65
2018-11-03 06:00:00 6.9 6 Oeste 10 Oeste 0 -- -- 64
2018-11-03 05:00:00 7.4 6 Oeste 14 Oeste 0 -- -- 62
2018-11-03 04:00:00 7.6 4 Oeste 10 Oeste 0 -- -- 61
2018-11-03 03:00:00 8.4 0 Calma -- -- 0 -- -- 60
2018-11-03 02:00:00 8.5 0 Calma -- -- 0 -- -- 63
2018-11-03 01:00:00 9 0 Calma -- -- 0 -- -- 65
2018-11-03 00:00:00 9 0 Calma 7 Este 0.1 -- -- 76
2018-11-02 23:00:00 10 0 Calma -- -- 0 -- -- 80
2018-11-02 22:00:00 10.2 0 Calma 12 Oeste 0 -- -- 79
2018-11-02 21:00:00 10.8 7 Oeste 16 Oeste 0 -- -- 74
2018-11-02 20:00:00 11.1 11 Oeste 17 Oeste 0 -- -- 73
2018-11-02 19:00:00 11.6 8 Oeste 12 Oeste 0 -- -- 66
2018-11-02 18:00:00 13.1 5 Oeste 17 Oeste 0 -- -- 58
2018-11-02 17:00:00 14.6 8 Noroeste 24 Noroeste 0 -- -- 51
2018-11-02 16:00:00 16.3 13 Noroeste 24 Noroeste 0 -- -- 48
2018-11-02 15:00:00 16.4 13 Noroeste 26 Noroeste 0 -- -- 47
2018-11-02 14:00:00 15.9 15 Noroeste 33 Noroeste 0 -- -- 48
2018-11-02 13:00:00 15 14 Noroeste 30 Noroeste 0 -- -- 49
2018-11-02 12:00:00 15.5 14 Noroeste 30 Noroeste 0 -- -- 48
2018-11-02 11:00:00 14.5 14 Noroeste 27 Noroeste 0 -- -- 51
2018-11-02 10:00:00 12.6 8 Noroeste 16 Norte 0 -- -- 60
2018-11-02 09:00:00 9.8 2 Oeste 18 Oeste 0 -- -- 71
2018-11-02 08:00:00 9.4 12 Oeste 20 Noroeste 0 -- -- 72
2018-11-02 07:00:00 9.7 0 Calma 22 Sur 0 -- -- 68
2018-11-02 06:00:00 9.8 12 Sur 22 Sur 0 -- -- 68
2018-11-02 05:00:00 8.6 2 Este 19 Sur 0 -- -- 68
2018-11-02 04:00:00 9.4 3 Sur 20 Sudoeste 0 -- -- 62
2018-11-02 03:00:00 7.9 5 Sudoeste 20 Sudoeste 0 -- -- 63
2018-11-02 02:00:00 7 0 Calma 18 Sudoeste 0 -- -- 62
2018-11-02 01:00:00 8.7 11 Sudoeste 21 Sudoeste 0 -- -- 57
2018-11-02 00:00:00 6.5 0 Calma 10 Oeste 0 -- -- 64
2018-11-01 23:00:00 6.6 0 Calma 12 Sur 0 -- -- 66
2018-11-01 22:00:00 7.1 5 Sudoeste 11 Oeste 0 -- -- 65
2018-11-01 21:00:00 7.1 0 Calma 13 Sudoeste 0 -- -- 64
2018-11-01 20:00:00 8 7 Sudoeste 17 Sudoeste 0 -- -- 63
2018-11-01 19:00:00 8.5 12 Sudoeste 21 Sudoeste 0 -- -- 57
2018-11-01 18:00:00 9.4 10 Sudoeste 21 Sur 0 -- -- 49
2018-11-01 17:00:00 10.6 14 Sudoeste 30 Sur 0 -- -- 46
2018-11-01 16:00:00 12 13 Sudoeste 27 Sudoeste 0 -- -- 41
2018-11-01 15:00:00 12.7 9 Sudoeste 22 Sudoeste 0 -- -- 39
2018-11-01 14:00:00 12.5 11 Sudoeste 25 Sudoeste 0 -- -- 40
2018-11-01 13:00:00 10.8 3 Sudeste 14 Norte 0 -- -- 43
2018-11-01 12:00:00 11.6 7 Norte 19 Norte 0 -- -- 40
2018-11-01 11:00:00 10.3 6 Noroeste 15 Noroeste 0 -- -- 42
2018-11-01 10:00:00 8.7 6 Noroeste 13 Noroeste 0 -- -- 50
2018-11-01 09:00:00 5.7 5 Sudoeste 10 Sudoeste 0 -- -- 65
2018-11-01 08:00:00 3.9 0 Calma 8 Sudeste 0 -- -- 74
2018-11-01 07:00:00 3.2 5 Sudoeste 9 Sudoeste 0 -- -- 74
2018-11-01 06:00:00 3.7 4 Sudoeste 7 Oeste 0 -- -- 73
2018-11-01 05:00:00 3.8 4 Sudoeste 7 Sudeste 0 -- -- 73
2018-11-01 04:00:00 3.6 0 Calma 3 Sudoeste 0 -- -- 74
2018-11-01 03:00:00 3.9 2 Este 5 Sudoeste 0 -- -- 74
2018-11-01 02:00:00 3.8 3 Sudoeste 6 Sudoeste 0.1 -- -- 74
2018-11-01 01:00:00 4.2 0 Calma 5 Sudoeste 0 -- -- 75
2018-11-01 00:00:00 4.2 0 Calma 7 Sudoeste 0 -- -- 76
2018-10-31 23:00:00 4.3 4 Sudoeste 10 Oeste 0 -- -- 76
2018-10-31 22:00:00 4.3 4 Sudoeste 6 Sudoeste 0 -- -- 74
2018-10-31 21:00:00 5 3 Sudeste 28 Sudoeste 0 -- -- 70
2018-10-31 20:00:00 6.3 19 Sudoeste 31 Sudoeste 0 -- -- 62
2018-10-31 19:00:00 6.3 23 Sudoeste 33 Sudoeste 0 -- -- 68
2018-10-31 18:00:00 6.4 14 Sudoeste 29 Sudoeste 0 -- -- 69
2018-10-31 17:00:00 6.8 16 Sudoeste 30 Sudoeste 0 -- -- 66
2018-10-31 16:00:00 7.2 13 Sudoeste 24 Sudoeste 0 -- -- 65
2018-10-31 15:00:00 7.6 10 Sudoeste 28 Sudoeste 0 -- -- 68
2018-10-31 14:00:00 6.3 13 Sudoeste 35 Sudoeste 0 -- -- 73
2018-10-31 13:00:00 4.9 9 Sudoeste 42 Sudoeste 0 -- -- 76
2018-10-31 12:00:00 5 25 Sudoeste 40 Sudoeste 0 -- -- 78
2018-10-31 11:00:00 5.3 25 Sudoeste 40 Sudoeste 0 -- -- 76
2018-10-31 10:00:00 5.3 21 Sudoeste 30 Sudoeste 0 -- -- 79
2018-10-31 09:00:00 4.7 5 Sudoeste 14 Sudoeste 0 -- -- 82
2018-10-31 08:00:00 4.4 10 Sudoeste 20 Sudoeste 0.1 -- -- 85
2018-10-31 07:00:00 4.3 10 Sudoeste 18 Oeste 0.1 -- -- 85
2018-10-31 06:00:00 4.2 12 Oeste 27 Sudoeste 0.1 -- -- 85
2018-10-31 05:00:00 4.4 12 Sudoeste 22 Sudoeste 0 -- -- 84
2018-10-31 04:00:00 4.3 6 Sudoeste 14 Oeste 0.1 -- -- 83
2018-10-31 03:00:00 4.3 9 Sudoeste 21 Sudoeste 0.4 -- -- 82
2018-10-31 02:00:00 4.7 8 Sudoeste 22 Sudoeste 0.2 -- -- 82
2018-10-31 01:00:00 4.5 12 Sudoeste 21 Sur 0.3 -- -- 81
2018-10-31 00:00:00 4.5 0 Calma 6 Noroeste 0 -- -- 85
2018-10-30 23:00:00 4.4 0 Calma 5 Sur 0.6 -- -- 85
2018-10-30 22:00:00 4.4 4 Oeste 21 Sudoeste 0.4 -- -- 81
2018-10-30 21:00:00 5.5 5 Sudoeste 20 Sur 0 -- -- 84
2018-10-30 20:00:00 5.6 3 Sur 21 Sur 0 -- -- 85
2018-10-30 19:00:00 5.6 11 Sur 23 Sur 0.2 -- -- 83
2018-10-30 18:00:00 6 10 Sur 36 Sudoeste 2.3 -- -- 82
2018-10-30 17:00:00 6 18 Sur 32 Sudoeste 2.6 -- -- 78
2018-10-30 16:00:00 7.4 10 Sur 27 Sur 0 -- -- 80
2018-10-30 15:00:00 7.2 12 Sur 27 Sudeste 0.2 -- -- 83
2018-10-30 14:00:00 6.9 4 Sur 34 Sudoeste 0.4 -- -- 86
2018-10-30 13:00:00 6.5 11 Sur 27 Sudoeste 0.9 -- -- 86
2018-10-30 12:00:00 6.1 10 Sur 31 Sur 3.8 -- -- 86
2018-10-30 11:00:00 5.9 8 Sur 26 Sudeste 6.1 -- -- 87
2018-10-30 10:00:00 5.7 12 Sur 37 Sur 3.6 -- -- 86
2018-10-30 09:00:00 5.5 19 Sur 47 Sur 2.8 -- -- 85
2018-10-30 08:00:00 5.4 26 Sur 48 Sudoeste 2.5 -- -- 84
2018-10-30 07:00:00 5 18 Sur 41 Sur 1.2 -- -- 85
2018-10-30 06:00:00 4.6 20 Sur 41 Sur 1.8 -- -- 84
2018-10-30 05:00:00 4.4 20 Sur 54 Sudoeste 0.7 -- -- 84
2018-10-30 04:00:00 4.3 16 Sudoeste 44 Sudoeste 0.1 -- -- 84
2018-10-30 03:00:00 4.3 17 Sur 37 Sur 0 -- -- 82
2018-10-30 02:00:00 4.5 18 Sudoeste 47 Sudoeste 0 -- -- 72
2018-10-30 01:00:00 4.4 19 Sudoeste 44 Sudoeste 0 -- -- 65
2018-10-30 00:00:00 4.3 19 Sudoeste 41 Sudoeste 0 -- -- 62
2018-10-29 23:00:00 4.4 16 Sudoeste 30 Sudoeste 0 -- -- 53
2018-10-29 22:00:00 4.9 15 Sudoeste 31 Noroeste 0 -- -- 49
2018-10-29 21:00:00 5.6 15 Sudoeste 33 Sudoeste 0 -- -- 45
2018-10-29 20:00:00 5.9 15 Oeste 31 Oeste 0 -- -- 43
2018-10-29 19:00:00 5.9 18 Oeste 35 Oeste 0 -- -- 42
2018-10-29 18:00:00 5.9 18 Oeste 30 Oeste 0 -- -- 41
2018-10-29 17:00:00 6.9 10 Oeste 27 Noroeste 0 -- -- 37
2018-10-29 16:00:00 9.3 15 Oeste 31 Noroeste 0 -- -- 32
2018-10-29 15:00:00 8.8 15 Noroeste 32 Noroeste 0 -- -- 30
2018-10-29 14:00:00 8.7 18 Oeste 31 Noroeste 0 -- -- 32
2018-10-29 13:00:00 7.5 15 Noroeste 32 Noroeste 0 -- -- 37
2018-10-29 12:00:00 6.7 17 Noroeste 31 Noroeste 0 -- -- 40
2018-10-29 11:00:00 5 16 Noroeste 33 Noroeste 0 -- -- 42
2018-10-29 10:00:00 4.2 15 Noroeste 26 Noroeste 0 -- -- 43
2018-10-29 09:00:00 3.5 14 Oeste 26 Oeste 0 -- -- 49
2018-10-29 08:00:00 2 12 Oeste 24 Oeste 0 -- -- 53
2018-10-29 07:00:00 1.6 12 Oeste 24 Noroeste 0 -- -- 55
2018-10-29 06:00:00 1.4 9 Oeste 18 Oeste 0 -- -- 58
2018-10-29 05:00:00 0.8 10 Oeste 14 Sudoeste 0 -- -- 62
2018-10-29 04:00:00 0.2 5 Sudoeste 8 Sudoeste 0 -- -- 64
2018-10-29 03:00:00 0.3 3 Sudeste 14 Oeste 0 -- -- 61
2018-10-29 02:00:00 2.1 10 Oeste 19 Oeste 0 -- -- 53
2018-10-29 01:00:00 2.2 10 Oeste 20 Oeste 0 -- -- 53
2018-10-29 00:00:00 3 14 Oeste 27 Oeste 0 -- -- 50
2018-10-28 23:00:00 1.8 10 Oeste 17 Oeste 0 -- -- 54
2018-10-28 22:00:00 1.5 5 Sudoeste 13 Oeste 0 -- -- 59
2018-10-28 21:00:00 1.3 9 Sudoeste 16 Oeste 0 -- -- 62
2018-10-28 20:00:00 2.4 7 Oeste 16 Noroeste 0.1 -- -- 55
2018-10-28 19:00:00 2.9 9 Oeste 17 Noroeste 0 -- -- 54
2018-10-28 18:00:00 4.4 13 Noroeste 36 Norte 0 -- -- 44
2018-10-28 17:00:00 5.2 22 Norte 43 Norte 0 -- -- 37
2018-10-28 16:00:00 7 17 Norte 39 Norte 0 -- -- 40
2018-10-28 15:00:00 5.1 14 Norte 31 Norte 0 -- -- 46
2018-10-28 14:00:00 5.4 14 Norte 28 Norte 0 -- -- 50
2018-10-28 13:00:00 4.9 14 Noroeste 23 Noroeste 0 -- -- 54
2018-10-28 12:00:00 4.5 10 Norte 23 Noroeste 0 -- -- 58
2018-10-28 11:00:00 4.2 12 Norte 23 Noroeste 0 -- -- 62
2018-10-28 10:00:00 2.3 9 Norte 21 Norte 0 -- -- 72
2018-10-28 09:00:00 1.8 10 Noroeste 18 Norte 0 -- -- 79
2018-10-28 08:00:00 1.8 8 Noroeste 18 Noroeste 0 -- -- 81
2018-10-28 07:00:00 1.9 8 Noroeste 14 Noroeste 0 -- -- 85
2018-10-28 06:00:00 1.9 9 Noroeste 16 Noroeste 0 -- -- 85
2018-10-28 05:00:00 1.9 10 Oeste 19 Oeste 0 -- -- 85
2018-10-28 04:00:00 1.8 9 Oeste 15 Oeste 0.1 -- -- 85
2018-10-28 03:00:00 2 7 Oeste 11 Oeste 0 -- -- 85
2018-10-28 02:00:00 2 6 Oeste 15 Oeste 0.1 -- -- 85
2018-10-28 01:00:00 0.4 14 Oeste 32 Noroeste 0.8 -- -- 85
2018-10-28 00:00:00 3.6 9 Nordeste 13 Nordeste 0.2 -- -- 79
2018-10-27 23:00:00 3.2 0 Calma 11 Norte 0 -- -- 76
2018-10-27 22:00:00 3.2 5 Nordeste 11 Nordeste 0 -- -- 77
2018-10-27 21:00:00 2.7 3 Sudoeste 9 Sudoeste 0 -- -- 81
2018-10-27 20:00:00 2.9 4 Sudoeste 9 Sudoeste 0 -- -- 82
2018-10-27 19:00:00 3.5 6 Sudoeste 10 Sudoeste 0 -- -- 83
2018-10-27 18:00:00 3.3 5 Noroeste -- -- -- -- -- 85
2018-10-27 17:00:00 -- -- -- -- -- -- -- -- --
2018-10-27 16:00:00 -- -- -- -- -- -- -- -- --
2018-10-27 15:00:00 6.9 4 Este 27 Noroeste 2.6 -- -- 81
2018-10-27 14:00:00 8.6 5 Noroeste 11 Noroeste 0.8 -- -- 76
2018-10-27 13:00:00 9.5 0 Calma 10 Nordeste 0 -- -- 72
2018-10-27 12:00:00 9.5 9 Norte 26 Norte 0 -- -- 76
2018-10-27 11:00:00 11 0 Calma -- -- 0 -- -- 80
2018-10-27 10:00:00 10.3 0 Calma 18 Sudoeste 0 -- -- 82
2018-10-27 09:00:00 9.9 8 Sur 17 Sur 0.1 -- -- 84
2018-10-27 08:00:00 9.9 4 Sudoeste 9 Sur 0.1 -- -- 82
2018-10-27 07:00:00 10 6 Oeste 17 Sudoeste 0 -- -- 82
2018-10-27 06:00:00 9.6 0 Calma 5 Sudoeste 0.1 -- -- 85
2018-10-27 05:00:00 9.8 4 Sudoeste 8 Sudoeste 0.6 -- -- 85
2018-10-27 04:00:00 10.1 0 Calma 7 Sudeste 0.4 -- -- 86
2018-10-27 03:00:00 10.1 4 Sudeste 11 Noroeste 0.1 -- -- 85
2018-10-27 02:00:00 10.3 6 Oeste 10 Oeste 0 -- -- 85
2018-10-27 01:00:00 10.5 4 Sudoeste 7 Oeste 0 -- -- 85
2018-10-27 00:00:00 10.5 3 Sudoeste 8 Sudoeste 0.1 -- -- 86
2018-10-26 23:00:00 10.5 0 Calma 10 Sudoeste 0.2 -- -- 88
2018-10-26 22:00:00 10.5 0 Calma 4 Sudeste 1 -- -- 86
2018-10-26 21:00:00 11 0 Calma 5 Sudeste 0.1 -- -- 85
2018-10-26 20:00:00 11.4 4 Sudeste 10 Sur 0.1 -- -- 78
2018-10-26 19:00:00 12.8 0 Calma 7 Sudeste 0 -- -- 68
2018-10-26 18:00:00 13.7 0 Calma 6 Sudeste 0 -- -- 70
2018-10-26 17:00:00 13.8 0 Calma 9 Sur 0 -- -- 73
2018-10-26 16:00:00 14.3 0 Calma -- -- 0.1 -- -- 70
2018-10-26 15:00:00 14.1 0 Calma 6 Sudeste 0.1 -- -- 72
2018-10-26 14:00:00 14.3 0 Calma 24 Sudoeste 0.3 -- -- 73
2018-10-26 13:00:00 12.5 20 Sudoeste 35 Sudoeste 0.5 -- -- 74
2018-10-26 12:00:00 13 16 Sur 27 Sur 0.3 -- -- 60
2018-10-26 11:00:00 16 13 Sur 19 Sur 0 -- -- 48
2018-10-26 10:00:00 15 7 Sur 15 Sur 0 -- -- 49
2018-10-26 09:00:00 14.6 12 Sur 17 Sur 0 -- -- 49
2018-10-26 08:00:00 14.8 13 Sur 18 Sur 0 -- -- 47
2018-10-26 07:00:00 14.5 10 Sur 15 Sur 0 -- -- 48
2018-10-26 06:00:00 13.8 9 Sur 12 Sur 0 -- -- 51
2018-10-26 05:00:00 13.5 2 Sur 9 Sur 0 -- -- 51
2018-10-26 04:00:00 13.7 0 Calma -- -- 0 -- -- 51
2018-10-26 03:00:00 13.5 0 Calma -- -- 0 -- -- 51
2018-10-26 02:00:00 13.7 0 Calma -- -- 0 -- -- 51
2018-10-26 01:00:00 13.9 0 Calma 6 Sudoeste 0 -- -- 51
2018-10-26 00:00:00 14.4 0 Calma -- -- 0 -- -- 50
2018-10-25 23:00:00 14.6 0 Calma -- -- 0 -- -- 50
2018-10-25 22:00:00 14.8 0 Calma -- -- 0 -- -- 50
2018-10-25 21:00:00 14.8 0 Calma 8 Este 0 -- -- 48
2018-10-25 20:00:00 15.1 3 Este 13 Sudoeste 0 -- -- 42
2018-10-25 19:00:00 17.9 9 Sudoeste 13 Sudoeste 0 -- -- 35
2018-10-25 18:00:00 20.7 8 Sudoeste 14 Sudoeste 0 -- -- 33
2018-10-25 17:00:00 22.4 2 Oeste 14 Sudoeste 0 -- -- 30
2018-10-25 16:00:00 21.5 3 Sur 21 Sudoeste 0 -- -- 30
2018-10-25 15:00:00 21.5 5 Sur 20 Oeste 0 -- -- 30
2018-10-25 14:00:00 20.9 7 Sudoeste 21 Sudoeste 0 -- -- 33
2018-10-25 13:00:00 21.2 3 Sudoeste 10 Nordeste 0 -- -- 34
2018-10-25 12:00:00 20.3 0 Calma 6 Noroeste 0 -- -- 40
2018-10-25 11:00:00 19 0 Calma -- -- 0 -- -- 47
2018-10-25 10:00:00 15.1 0 Calma -- -- 0 -- -- 60
2018-10-25 09:00:00 13.5 0 Calma -- -- 0 -- -- 62
2018-10-25 08:00:00 13.1 0 Calma -- -- 0 -- -- 62
2018-10-25 07:00:00 13.6 0 Calma -- -- 0 -- -- 62
2018-10-25 06:00:00 13.5 0 Calma -- -- 0 -- -- 64
2018-10-25 05:00:00 13.7 0 Calma -- -- 0 -- -- 63
2018-10-25 04:00:00 13.4 0 Calma -- -- 0 -- -- 56
2018-10-25 03:00:00 14.1 0 Calma -- -- 0 -- -- 53
2018-10-25 02:00:00 14.2 0 Calma -- -- 0 -- -- 53
2018-10-25 01:00:00 14.3 0 Calma -- -- 0 -- -- 49
2018-10-25 00:00:00 14.5 0 Calma -- -- 0 -- -- 49
2018-10-24 23:00:00 14.6 0 Calma -- -- 0 -- -- 49
2018-10-24 22:00:00 14.9 0 Calma -- -- 0 -- -- 48
2018-10-24 21:00:00 15.4 0 Calma -- -- 0 -- -- 47
2018-10-24 20:00:00 15.8 0 Calma -- -- 0 -- -- 47
2018-10-24 19:00:00 18 0 Calma 6 Norte 0 -- -- 42
2018-10-24 18:00:00 21.6 3 Noroeste 12 Noroeste 0 -- -- 39
2018-10-24 17:00:00 21.6 4 Norte 13 Nordeste 0 -- -- 37
2018-10-24 16:00:00 22.5 5 Noroeste 15 Noroeste 0 -- -- 37
2018-10-24 15:00:00 21 4 Nordeste 13 Norte 0 -- -- 37
2018-10-24 14:00:00 20.7 7 Nordeste 15 Nordeste 0 -- -- 40
2018-10-24 13:00:00 19.6 4 Norte 11 Norte 0 -- -- 43
2018-10-24 12:00:00 18.3 0 Calma 8 Oeste 0 -- -- 49
2018-10-24 11:00:00 17.6 0 Calma -- -- 0 -- -- 57
2018-10-24 10:00:00 15.3 0 Calma 3 Sudeste 0 -- -- 68
2018-10-24 09:00:00 12.5 3 Este 5 Este 0 -- -- 73
2018-10-24 08:00:00 12 2 Sudoeste 5 Sudoeste 0 -- -- 74
2018-10-24 07:00:00 12.3 4 Sudoeste 6 Sudoeste 0 -- -- 71
2018-10-24 06:00:00 12.9 0 Calma -- -- 0 -- -- 68
2018-10-24 05:00:00 12.9 0 Calma -- -- 0 -- -- 68
2018-10-24 04:00:00 13.3 0 Calma -- -- 0 -- -- 68
2018-10-24 03:00:00 13.5 0 Calma -- -- 0 -- -- 68
2018-10-24 02:00:00 13.6 0 Calma 6 Sudeste 0 -- -- 68
2018-10-24 01:00:00 13.7 2 Sudeste 5 Sudeste 0 -- -- 68
2018-10-24 00:00:00 14 2 Sudeste 5 Sur 0 -- -- 66
2018-10-23 23:00:00 13.7 0 Calma 7 Sudoeste 0 -- -- 68
2018-10-23 22:00:00 14.2 5 Sudoeste 8 Sudoeste 0 -- -- 71
2018-10-23 21:00:00 14.6 5 Sudoeste 9 Sudoeste 0 -- -- 68
2018-10-23 20:00:00 15.5 6 Sudoeste 9 Sudoeste 0 -- -- 61
2018-10-23 19:00:00 17.7 0 Calma 12 Norte 0 -- -- 51
2018-10-23 18:00:00 19 2 Norte 17 Nordeste 0 -- -- 48
2018-10-23 17:00:00 20.6 7 Noroeste 15 Nordeste 0 -- -- 47
2018-10-23 16:00:00 19.6 0 Calma 12 Oeste 0 -- -- 52
2018-10-23 15:00:00 17.9 4 Noroeste 15 Norte 0 -- -- 61
2018-10-23 14:00:00 18.5 7 Norte 13 Norte 0 -- -- 58
2018-10-23 13:00:00 18 2 Nordeste 9 Norte 0 -- -- 59
2018-10-23 12:00:00 15.4 0 Calma 9 Norte 0 -- -- 64
2018-10-23 11:00:00 12.6 2 Norte 8 Noroeste 0 -- -- 69
2018-10-23 10:00:00 11.1 0 Calma 6 Norte 0 -- -- 76
2018-10-23 09:00:00 9.7 0 Calma 6 Sudeste 0 -- -- 82
2018-10-23 08:00:00 9.4 0 Calma 12 Sudeste 0 -- -- 78
2018-10-23 07:00:00 11.3 0 Calma 6 Este 0 -- -- 69
2018-10-23 06:00:00 11.5 0 Calma -- -- 0 -- -- 65
2018-10-23 05:00:00 11.4 0 Calma -- -- 0 -- -- 60
2018-10-23 04:00:00 11.9 0 Calma 7 Sudeste 0 -- -- 55
2018-10-23 03:00:00 13.1 4 Sudeste 7 Sudeste 0 -- -- 51
2018-10-23 02:00:00 13.7 5 Sudoeste 8 Sudoeste 0 -- -- 52
2018-10-23 01:00:00 14.2 0 Calma 6 Este 0 -- -- 51
2018-10-23 00:00:00 14.3 0 Calma 6 Sudeste 0 -- -- 57
2018-10-22 23:00:00 14.4 5 Sudeste 6 Sudeste 0 -- -- 60
2018-10-22 22:00:00 14.9 0 Calma -- -- 0 -- -- 60
2018-10-22 21:00:00 15.4 0 Calma -- -- 0 -- -- 59
2018-10-22 20:00:00 15.4 0 Calma 8 Sudoeste 0 -- -- 59
2018-10-22 19:00:00 15.8 6 Sudoeste 9 Sur 0 -- -- 61
2018-10-22 18:00:00 17.1 5 Sudoeste 8 Sudoeste 0 -- -- 55
2018-10-22 17:00:00 19.9 6 Norte 15 Nordeste 0 -- -- 48
2018-10-22 16:00:00 20.4 5 Norte 16 Norte 0.1 -- -- 50
2018-10-22 15:00:00 20.6 6 Norte 16 Norte 0 -- -- 52
2018-10-22 14:00:00 19.7 5 Norte 18 Noroeste 0 -- -- 54
2018-10-22 13:00:00 19.1 3 Norte 10 Nordeste 0 -- -- 55
2018-10-22 12:00:00 18.7 3 Norte 8 Norte 0 -- -- 59
2018-10-22 11:00:00 16.9 0 Calma -- -- 0 -- -- 68
2018-10-22 10:00:00 13.9 0 Calma 6 Sudoeste 0 -- -- 83
2018-10-22 09:00:00 12.2 5 Sudoeste 9 Sudoeste 0 -- -- 84
2018-10-22 08:00:00 11.9 0 Calma -- -- 0 -- -- 84
2018-10-22 07:00:00 11.9 0 Calma 9 Sudeste 0 -- -- 84
2018-10-22 06:00:00 12.1 7 Sudeste 10 Sudeste 0.4 -- -- 85
2018-10-22 05:00:00 13 3 Noroeste 27 Sur 4.6 -- -- 78
2018-10-22 04:00:00 13.9 6 Sudeste 30 Sur 0 -- -- 77
2018-10-22 03:00:00 14.4 12 Sur 21 Sudoeste 0 -- -- 75
2018-10-22 02:00:00 14.1 3 Sudeste 12 Sur 0 -- -- 75
2018-10-22 01:00:00 14.1 4 Sudeste 12 Sudeste 0 -- -- 70
2018-10-22 00:00:00 13.2 6 Sudeste 15 Sudeste 0 -- -- 71
2018-10-21 23:00:00 11.6 3 Sur 8 Sudeste 0 -- -- 83
2018-10-21 22:00:00 12.2 2 Sur 6 Sur 0.1 -- -- 82
2018-10-21 21:00:00 13.4 2 Sudoeste 19 Nordeste 0.2 -- -- 83
2018-10-21 20:00:00 14.9 7 Nordeste 15 Sudeste 0.2 -- -- 84
2018-10-21 19:00:00 15.2 5 Sudoeste 8 Sudoeste 0.3 -- -- 82
2018-10-21 18:00:00 15.6 0 Calma 9 Sur 2.8 -- -- 82
2018-10-21 17:00:00 15 4 Sudeste 17 Este 2 -- -- 74
2018-10-21 16:00:00 16.8 0 Calma 15 Este 1.3 -- -- 73
2018-10-21 15:00:00 17.8 7 Este 19 Este 0 -- -- 58
2018-10-21 14:00:00 17 6 Nordeste 19 Este 0 -- -- 61
2018-10-21 13:00:00 16.9 4 Nordeste 22 Este 0 -- -- 59
2018-10-21 12:00:00 16.7 7 Este 24 Este 0 -- -- 55
2018-10-21 11:00:00 17 6 Nordeste 19 Este 0 -- -- 62
2018-10-21 10:00:00 13.4 0 Calma 5 Sudoeste 0 -- -- 84
2018-10-21 09:00:00 12.4 2 Sudoeste 8 Sur 0 -- -- 84
2018-10-21 08:00:00 12.5 4 Sudoeste 12 Nordeste 0 -- -- 81
2018-10-21 07:00:00 12.8 2 Sudoeste 16 Este 0 -- -- 77
2018-10-21 06:00:00 14.2 3 Nordeste 31 Sudeste 0 -- -- 66
2018-10-21 05:00:00 13.9 9 Este 30 Este 0 -- -- 70
2018-10-21 04:00:00 14.2 7 Sudeste 31 Este 0 -- -- 67
2018-10-21 03:00:00 14.2 7 Este 45 Este 0 -- -- 67
2018-10-21 02:00:00 14.3 13 Este 40 Este 0 -- -- 69
2018-10-21 01:00:00 13.9 12 Este 37 Este 0 -- -- 73
2018-10-21 00:00:00 14.1 12 Este 41 Este 0 -- -- 72
2018-10-20 23:00:00 14.4 10 Este 31 Sudeste 0 -- -- 72
2018-10-20 22:00:00 14.5 10 Este 33 Este 0 -- -- 73
2018-10-20 21:00:00 14.6 14 Este 40 Este 0 -- -- 76
2018-10-20 20:00:00 14.5 14 Este 40 Este 0.1 -- -- 77
2018-10-20 19:00:00 14.1 5 Sudeste 31 Este 1 -- -- 74
2018-10-20 18:00:00 16.1 12 Este 29 Este 0 -- -- 60
2018-10-20 17:00:00 16 9 Este 27 Este 0 -- -- 56
2018-10-20 16:00:00 16.1 8 Este 30 Este 0 -- -- 57
2018-10-20 15:00:00 16.3 11 Este 29 Este 0 -- -- 58
2018-10-20 14:00:00 14.9 9 Este 28 Este 0 -- -- 65
2018-10-20 13:00:00 14.1 10 Este 35 Este 0 -- -- 70
2018-10-20 12:00:00 13.3 11 Este 35 Este 0 -- -- 76
2018-10-20 11:00:00 11.9 9 Este 32 Este 0 -- -- 81
2018-10-20 10:00:00 11.6 7 Este 33 Este 0 -- -- 82
2018-10-20 09:00:00 10.8 8 Este 29 Este 0 -- -- 84
2018-10-20 08:00:00 10.4 7 Nordeste 22 Este 0 -- -- 83
2018-10-20 07:00:00 11.1 8 Este 23 Este 0.1 -- -- 84
2018-10-20 06:00:00 10.8 8 Este 22 Este 0 -- -- 86
2018-10-20 05:00:00 10.7 7 Este 15 Este 0 -- -- 87
2018-10-20 04:00:00 11.3 0 Calma 10 Este 0 -- -- 87
2018-10-20 03:00:00 11.6 4 Este 12 Este 0 -- -- 86
2018-10-20 02:00:00 12 5 Este 19 Este 0 -- -- 86
2018-10-20 01:00:00 12.3 5 Este 15 Sudeste 0 -- -- 86
2018-10-20 00:00:00 12.4 4 Este 13 Este 0 -- -- 87
2018-10-19 23:00:00 12.6 0 Calma 7 Nordeste 0 -- -- 87
2018-10-19 22:00:00 12.6 0 Calma 11 Este 0.3 -- -- 87
2018-10-19 21:00:00 12.7 2 Nordeste 13 Nordeste 0 -- -- 86
2018-10-19 20:00:00 12.7 2 Norte 12 Norte 0 -- -- 85
2018-10-19 19:00:00 12.6 2 Norte 12 Norte 0 -- -- 85
2018-10-19 18:00:00 13 5 Nordeste 14 Nordeste 0 -- -- 85
2018-10-19 17:00:00 12.5 5 Nordeste 15 Nordeste 0.6 -- -- 85
2018-10-19 16:00:00 12.3 6 Nordeste 19 Nordeste 1.2 -- -- 84
2018-10-19 15:00:00 12.6 4 Nordeste 16 Este 1.1 -- -- 81
2018-10-19 14:00:00 13.2 6 Este 15 Este 0 -- -- 75
2018-10-19 13:00:00 12.5 7 Nordeste 16 Nordeste 0 -- -- 80
2018-10-19 12:00:00 11.9 5 Nordeste 14 Este 0 -- -- 85
2018-10-19 11:00:00 11.4 2 Norte 8 Nordeste 0 -- -- 87
2018-10-19 10:00:00 11 6 Nordeste 15 Nordeste 0 -- -- 87
2018-10-19 09:00:00 10.7 0 Calma 9 Norte 0 -- -- 87
2018-10-19 08:00:00 10.7 3 Norte 9 Norte 0 -- -- 86
2018-10-19 07:00:00 10.7 0 Calma 12 Este 0 -- -- 85
2018-10-19 06:00:00 11.2 3 Este 9 Este 0 -- -- 85
2018-10-19 05:00:00 11.5 4 Este 12 Este 0 -- -- 87
2018-10-19 04:00:00 11.8 4 Nordeste 18 Nordeste 0 -- -- 87
2018-10-19 03:00:00 11.7 7 Nordeste 22 Nordeste 0 -- -- 87
2018-10-19 02:00:00 11.8 4 Nordeste 20 Nordeste 0 -- -- 86
2018-10-19 01:00:00 11.9 4 Norte 17 Nordeste 0.1 -- -- 85
2018-10-19 00:00:00 12.1 0 Calma 13 Nordeste 0.1 -- -- 81
2018-10-18 23:00:00 12.4 7 Nordeste 26 Nordeste 0.1 -- -- 75
2018-10-18 22:00:00 12.5 5 Este 15 Este 0 -- -- 68
2018-10-18 21:00:00 12 2 Nordeste 15 Este 0 -- -- 72
2018-10-18 20:00:00 12.3 4 Este 18 Este 0 -- -- 71
2018-10-18 19:00:00 13.6 5 Este 16 Este 0 -- -- 75
2018-10-18 18:00:00 13.7 3 Sudeste 30 Este 1.4 -- -- 72
2018-10-18 17:00:00 16.5 14 Nordeste 33 Nordeste 0.1 -- -- 45
2018-10-18 16:00:00 17 11 Este 30 Nordeste 0 -- -- 44
2018-10-18 15:00:00 15.3 9 Este 27 Nordeste 0 -- -- 54
2018-10-18 14:00:00 15.5 4 Nordeste 15 Nordeste 0 -- -- 61
2018-10-18 13:00:00 13.3 2 Noroeste 13 Norte 0 -- -- 74
2018-10-18 12:00:00 11.8 4 Norte 10 Noroeste 0 -- -- 81
2018-10-18 11:00:00 11.6 5 Norte 12 Norte 0 -- -- 87
2018-10-18 10:00:00 11.2 6 Norte 12 Nordeste 0 -- -- 87
2018-10-18 09:00:00 11.2 4 Noroeste 11 Norte 0 -- -- 86
2018-10-18 08:00:00 11.3 5 Norte 11 Norte 0.8 -- -- 85
2018-10-18 07:00:00 11.2 3 Oeste 11 Oeste 0 -- -- 82
2018-10-18 06:00:00 11.9 2 Sudoeste 19 Sur 1 -- -- 74
2018-10-18 05:00:00 12.4 8 Sur 15 Sudoeste 0.7 -- -- 64
2018-10-18 04:00:00 13.3 8 Sudoeste 13 Sudoeste 0 -- -- 55
2018-10-18 03:00:00 13.5 3 Sudeste 6 Sudeste 0 -- -- 53
2018-10-18 02:00:00 13.5 0 Calma 8 Este 0 -- -- 50
2018-10-18 01:00:00 13.4 6 Sur 8 Sudeste 0 -- -- 51
2018-10-18 00:00:00 13.4 4 Sudoeste 7 Sur 0 -- -- 52